sensor_id;sensor_type;location;lat;lon;timestamp;P1;durP1;ratioP1;P2;durP2;ratioP2
42000;SDS011;27689;48.390;10.856;2022-11-15T00:01:46;16.80;;;11.07;;
42000;SDS011;27689;48.390;10.856;2022-11-15T00:04:30;13.40;;;10.95;;
42000;SDS011;27689;48.390;10.856;2022-11-15T00:07:14;14.45;;;11.45;;
42000;SDS011;27689;48.390;10.856;2022-11-15T00:09:58;17.83;;;11.30;;
42000;SDS011;27689;48.390;10.856;2022-11-15T00:12:42;13.60;;;10.25;;
42000;SDS011;27689;48.390;10.856;2022-11-15T00:15:26;14.70;;;10.93;;
42000;SDS011;27689;48.390;10.856;2022-11-15T00:18:12;13.87;;;10.93;;
42000;SDS011;27689;48.390;10.856;2022-11-15T00:21:02;15.70;;;11.27;;
42000;SDS011;27689;48.390;10.856;2022-11-15T00:23:48;15.15;;;10.93;;
42000;SDS011;27689;48.390;10.856;2022-11-15T00:26:32;17.47;;;10.77;;
42000;SDS011;27689;48.390;10.856;2022-11-15T00:29:16;15.52;;;9.63;;
42000;SDS011;27689;48.390;10.856;2022-11-15T00:32:00;12.50;;;9.53;;
42000;SDS011;27689;48.390;10.856;2022-11-15T00:34:43;10.82;;;8.57;;
42000;SDS011;27689;48.390;10.856;2022-11-15T00:37:27;15.90;;;9.83;;
42000;SDS011;27689;48.390;10.856;2022-11-15T00:40:11;10.43;;;7.73;;
42000;SDS011;27689;48.390;10.856;2022-11-15T00:42:56;11.73;;;8.38;;
42000;SDS011;27689;48.390;10.856;2022-11-15T00:45:40;11.52;;;8.95;;
42000;SDS011;27689;48.390;10.856;2022-11-15T00:48:24;10.02;;;7.60;;
42000;SDS011;27689;48.390;10.856;2022-11-15T00:51:08;11.45;;;7.82;;
42000;SDS011;27689;48.390;10.856;2022-11-15T00:53:52;10.00;;;7.37;;
42000;SDS011;27689;48.390;10.856;2022-11-15T00:56:36;8.83;;;7.00;;
42000;SDS011;27689;48.390;10.856;2022-11-15T00:59:20;8.90;;;6.53;;
42000;SDS011;27689;48.390;10.856;2022-11-15T01:02:03;7.78;;;6.30;;
42000;SDS011;27689;48.390;10.856;2022-11-15T01:04:47;10.07;;;7.22;;
42000;SDS011;27689;48.390;10.856;2022-11-15T01:07:31;8.63;;;6.33;;
42000;SDS011;27689;48.390;10.856;2022-11-15T01:10:15;11.60;;;7.88;;
42000;SDS011;27689;48.390;10.856;2022-11-15T01:12:59;9.10;;;7.13;;
42000;SDS011;27689;48.390;10.856;2022-11-15T01:15:43;7.63;;;6.20;;
42000;SDS011;27689;48.390;10.856;2022-11-15T01:18:27;7.93;;;6.28;;
42000;SDS011;27689;48.390;10.856;2022-11-15T01:21:15;9.38;;;6.70;;
42000;SDS011;27689;48.390;10.856;2022-11-15T01:24:01;9.73;;;7.20;;
42000;SDS011;27689;48.390;10.856;2022-11-15T01:26:45;8.18;;;6.80;;
42000;SDS011;27689;48.390;10.856;2022-11-15T01:29:29;9.03;;;7.70;;
42000;SDS011;27689;48.390;10.856;2022-11-15T01:32:13;9.13;;;6.53;;
42000;SDS011;27689;48.390;10.856;2022-11-15T01:34:57;11.70;;;7.32;;
42000;SDS011;27689;48.390;10.856;2022-11-15T01:37:41;9.30;;;7.05;;
42000;SDS011;27689;48.390;10.856;2022-11-15T01:40:25;10.57;;;6.78;;
42000;SDS011;27689;48.390;10.856;2022-11-15T01:43:28;9.10;;;6.23;;
42000;SDS011;27689;48.390;10.856;2022-11-15T01:49:14;8.75;;;6.68;;
42000;SDS011;27689;48.390;10.856;2022-11-15T01:52:03;10.80;;;7.00;;
42000;SDS011;27689;48.390;10.856;2022-11-15T01:54:50;9.52;;;6.40;;
42000;SDS011;27689;48.390;10.856;2022-11-15T01:57:44;8.85;;;6.95;;
42000;SDS011;27689;48.390;10.856;2022-11-15T02:00:32;9.75;;;7.10;;
42000;SDS011;27689;48.390;10.856;2022-11-15T02:03:16;12.30;;;8.10;;
42000;SDS011;27689;48.390;10.856;2022-11-15T02:06:00;11.68;;;7.35;;
42000;SDS011;27689;48.390;10.856;2022-11-15T02:08:47;10.55;;;7.45;;
42000;SDS011;27689;48.390;10.856;2022-11-15T02:11:31;8.48;;;6.80;;
42000;SDS011;27689;48.390;10.856;2022-11-15T02:14:16;9.52;;;7.03;;
42000;SDS011;27689;48.390;10.856;2022-11-15T02:20:58;8.15;;;6.50;;
42000;SDS011;27689;48.390;10.856;2022-11-15T02:23:51;7.95;;;6.40;;
42000;SDS011;27689;48.390;10.856;2022-11-15T02:36:59;7.65;;;6.38;;
42000;SDS011;27689;48.390;10.856;2022-11-15T02:42:49;8.32;;;6.10;;
42000;SDS011;27689;48.390;10.856;2022-11-15T02:46:10;9.30;;;5.70;;
42000;SDS011;27689;48.390;10.856;2022-11-15T02:48:59;9.27;;;5.78;;
42000;SDS011;27689;48.390;10.856;2022-11-15T02:51:43;7.27;;;5.83;;
42000;SDS011;27689;48.390;10.856;2022-11-15T02:54:31;9.60;;;6.60;;
42000;SDS011;27689;48.390;10.856;2022-11-15T02:57:16;9.40;;;6.50;;
42000;SDS011;27689;48.390;10.856;2022-11-15T03:09:09;23.45;;;16.73;;
42000;SDS011;27689;48.390;10.856;2022-11-15T03:12:04;18.40;;;13.68;;
42000;SDS011;27689;48.390;10.856;2022-11-15T03:14:58;16.20;;;12.10;;
42000;SDS011;27689;48.390;10.856;2022-11-15T03:17:49;17.05;;;13.27;;
42000;SDS011;27689;48.390;10.856;2022-11-15T03:20:36;16.08;;;12.48;;
42000;SDS011;27689;48.390;10.856;2022-11-15T03:23:20;13.05;;;10.27;;
42000;SDS011;27689;48.390;10.856;2022-11-15T03:26:07;12.30;;;9.63;;
42000;SDS011;27689;48.390;10.856;2022-11-15T03:28:57;12.05;;;7.80;;
42000;SDS011;27689;48.390;10.856;2022-11-15T03:31:47;9.02;;;7.10;;
42000;SDS011;27689;48.390;10.856;2022-11-15T03:37:36;9.07;;;7.70;;
42000;SDS011;27689;48.390;10.856;2022-11-15T03:40:36;11.02;;;7.22;;
42000;SDS011;27689;48.390;10.856;2022-11-15T03:46:54;10.55;;;7.47;;
42000;SDS011;27689;48.390;10.856;2022-11-15T03:49:42;7.93;;;6.93;;
42000;SDS011;27689;48.390;10.856;2022-11-15T03:52:31;9.25;;;7.00;;
42000;SDS011;27689;48.390;10.856;2022-11-15T03:55:18;9.00;;;6.50;;
42000;SDS011;27689;48.390;10.856;2022-11-15T03:58:03;9.60;;;7.55;;
42000;SDS011;27689;48.390;10.856;2022-11-15T04:00:47;9.55;;;6.93;;
42000;SDS011;27689;48.390;10.856;2022-11-15T04:03:31;8.85;;;6.78;;
42000;SDS011;27689;48.390;10.856;2022-11-15T04:06:15;9.10;;;6.97;;
42000;SDS011;27689;48.390;10.856;2022-11-15T04:08:59;10.63;;;7.23;;
42000;SDS011;27689;48.390;10.856;2022-11-15T04:11:43;8.80;;;7.15;;
42000;SDS011;27689;48.390;10.856;2022-11-15T04:14:27;10.20;;;7.65;;
42000;SDS011;27689;48.390;10.856;2022-11-15T04:17:11;10.00;;;7.47;;
42000;SDS011;27689;48.390;10.856;2022-11-15T04:19:54;10.13;;;8.10;;
42000;SDS011;27689;48.390;10.856;2022-11-15T04:22:58;10.70;;;7.90;;
42000;SDS011;27689;48.390;10.856;2022-11-15T04:26:03;8.63;;;7.40;;
42000;SDS011;27689;48.390;10.856;2022-11-15T04:28:49;9.38;;;7.25;;
42000;SDS011;27689;48.390;10.856;2022-11-15T04:31:52;10.05;;;7.30;;
42000;SDS011;27689;48.390;10.856;2022-11-15T04:34:36;8.75;;;7.25;;
42000;SDS011;27689;48.390;10.856;2022-11-15T04:37:21;9.48;;;7.40;;
42000;SDS011;27689;48.390;10.856;2022-11-15T04:40:05;8.77;;;6.40;;
42000;SDS011;27689;48.390;10.856;2022-11-15T04:42:50;9.52;;;6.45;;
42000;SDS011;27689;48.390;10.856;2022-11-15T04:45:34;9.10;;;6.85;;
42000;SDS011;27689;48.390;10.856;2022-11-15T04:48:18;10.48;;;7.05;;
42000;SDS011;27689;48.390;10.856;2022-11-15T04:51:02;10.43;;;7.40;;
42000;SDS011;27689;48.390;10.856;2022-11-15T04:53:46;10.83;;;6.80;;
42000;SDS011;27689;48.390;10.856;2022-11-15T04:56:29;9.73;;;6.45;;
42000;SDS011;27689;48.390;10.856;2022-11-15T04:59:14;11.32;;;7.57;;
42000;SDS011;27689;48.390;10.856;2022-11-15T05:01:58;9.13;;;6.68;;
42000;SDS011;27689;48.390;10.856;2022-11-15T05:04:41;8.93;;;6.77;;
42000;SDS011;27689;48.390;10.856;2022-11-15T05:07:26;8.48;;;6.10;;
42000;SDS011;27689;48.390;10.856;2022-11-15T05:10:10;10.13;;;6.78;;
42000;SDS011;27689;48.390;10.856;2022-11-15T05:12:54;9.80;;;6.70;;
42000;SDS011;27689;48.390;10.856;2022-11-15T05:15:38;8.40;;;6.73;;
42000;SDS011;27689;48.390;10.856;2022-11-15T05:18:22;7.20;;;5.95;;
42000;SDS011;27689;48.390;10.856;2022-11-15T05:21:06;8.85;;;6.65;;
42000;SDS011;27689;48.390;10.856;2022-11-15T05:23:52;9.00;;;6.32;;
42000;SDS011;27689;48.390;10.856;2022-11-15T05:26:36;9.13;;;6.93;;
42000;SDS011;27689;48.390;10.856;2022-11-15T05:29:20;10.23;;;6.80;;
42000;SDS011;27689;48.390;10.856;2022-11-15T05:32:05;8.13;;;6.30;;
42000;SDS011;27689;48.390;10.856;2022-11-15T05:34:50;9.05;;;6.28;;
42000;SDS011;27689;48.390;10.856;2022-11-15T05:37:34;9.50;;;6.57;;
42000;SDS011;27689;48.390;10.856;2022-11-15T05:40:17;8.67;;;6.67;;
42000;SDS011;27689;48.390;10.856;2022-11-15T05:43:01;8.90;;;6.40;;
42000;SDS011;27689;48.390;10.856;2022-11-15T05:45:48;9.50;;;6.75;;
42000;SDS011;27689;48.390;10.856;2022-11-15T05:48:34;9.25;;;6.25;;
42000;SDS011;27689;48.390;10.856;2022-11-15T05:51:21;10.43;;;6.75;;
42000;SDS011;27689;48.390;10.856;2022-11-15T05:54:06;9.50;;;6.82;;
42000;SDS011;27689;48.390;10.856;2022-11-15T05:56:50;10.90;;;7.53;;
42000;SDS011;27689;48.390;10.856;2022-11-15T05:59:35;11.68;;;7.93;;
42000;SDS011;27689;48.390;10.856;2022-11-15T06:05:04;7.93;;;6.32;;
42000;SDS011;27689;48.390;10.856;2022-11-15T06:07:48;10.55;;;7.47;;
42000;SDS011;27689;48.390;10.856;2022-11-15T06:10:32;11.23;;;7.72;;
42000;SDS011;27689;48.390;10.856;2022-11-15T06:13:16;15.97;;;10.13;;
42000;SDS011;27689;48.390;10.856;2022-11-15T06:16:00;17.35;;;12.10;;
42000;SDS011;27689;48.390;10.856;2022-11-15T06:18:44;16.27;;;10.38;;
42000;SDS011;27689;48.390;10.856;2022-11-15T06:21:28;12.80;;;9.93;;
42000;SDS011;27689;48.390;10.856;2022-11-15T06:24:12;14.27;;;11.15;;
42000;SDS011;27689;48.390;10.856;2022-11-15T06:26:56;14.50;;;10.00;;
42000;SDS011;27689;48.390;10.856;2022-11-15T06:29:41;13.85;;;10.68;;
42000;SDS011;27689;48.390;10.856;2022-11-15T06:32:25;13.05;;;9.75;;
42000;SDS011;27689;48.390;10.856;2022-11-15T06:35:08;14.40;;;9.13;;
42000;SDS011;27689;48.390;10.856;2022-11-15T06:37:52;12.77;;;8.88;;
42000;SDS011;27689;48.390;10.856;2022-11-15T06:40:37;12.38;;;9.63;;
42000;SDS011;27689;48.390;10.856;2022-11-15T06:43:23;10.48;;;8.30;;
42000;SDS011;27689;48.390;10.856;2022-11-15T06:46:07;10.18;;;8.55;;
42000;SDS011;27689;48.390;10.856;2022-11-15T06:48:51;11.65;;;8.95;;
42000;SDS011;27689;48.390;10.856;2022-11-15T06:51:36;11.68;;;8.60;;
42000;SDS011;27689;48.390;10.856;2022-11-15T06:54:20;14.95;;;8.45;;
42000;SDS011;27689;48.390;10.856;2022-11-15T06:57:05;12.43;;;8.93;;
42000;SDS011;27689;48.390;10.856;2022-11-15T06:59:49;11.27;;;8.57;;
42000;SDS011;27689;48.390;10.856;2022-11-15T07:02:33;10.50;;;7.85;;
42000;SDS011;27689;48.390;10.856;2022-11-15T07:05:17;13.68;;;9.65;;
42000;SDS011;27689;48.390;10.856;2022-11-15T07:08:01;12.88;;;8.93;;
42000;SDS011;27689;48.390;10.856;2022-11-15T07:10:45;11.55;;;8.73;;
42000;SDS011;27689;48.390;10.856;2022-11-15T07:13:30;13.00;;;9.43;;
42000;SDS011;27689;48.390;10.856;2022-11-15T07:16:17;11.25;;;7.60;;
42000;SDS011;27689;48.390;10.856;2022-11-15T07:19:01;10.10;;;7.97;;
42000;SDS011;27689;48.390;10.856;2022-11-15T07:21:45;9.37;;;7.17;;
42000;SDS011;27689;48.390;10.856;2022-11-15T07:24:30;13.48;;;8.63;;
42000;SDS011;27689;48.390;10.856;2022-11-15T07:27:14;11.13;;;8.10;;
42000;SDS011;27689;48.390;10.856;2022-11-15T07:29:58;11.07;;;7.10;;
42000;SDS011;27689;48.390;10.856;2022-11-15T07:32:42;14.30;;;8.32;;
42000;SDS011;27689;48.390;10.856;2022-11-15T07:35:26;11.95;;;8.25;;
42000;SDS011;27689;48.390;10.856;2022-11-15T07:38:11;12.20;;;8.13;;
42000;SDS011;27689;48.390;10.856;2022-11-15T07:40:56;10.32;;;7.97;;
42000;SDS011;27689;48.390;10.856;2022-11-15T07:43:43;18.05;;;10.95;;
42000;SDS011;27689;48.390;10.856;2022-11-15T07:46:27;14.73;;;11.20;;
42000;SDS011;27689;48.390;10.856;2022-11-15T07:49:11;14.03;;;10.87;;
42000;SDS011;27689;48.390;10.856;2022-11-15T07:51:55;17.40;;;11.75;;
42000;SDS011;27689;48.390;10.856;2022-11-15T07:54:39;13.50;;;10.32;;
42000;SDS011;27689;48.390;10.856;2022-11-15T07:57:23;12.52;;;10.05;;
42000;SDS011;27689;48.390;10.856;2022-11-15T08:00:07;12.70;;;9.52;;
42000;SDS011;27689;48.390;10.856;2022-11-15T08:02:52;14.73;;;10.77;;
42000;SDS011;27689;48.390;10.856;2022-11-15T08:05:36;19.15;;;13.23;;
42000;SDS011;27689;48.390;10.856;2022-11-15T08:08:21;20.60;;;14.07;;
42000;SDS011;27689;48.390;10.856;2022-11-15T08:11:05;22.73;;;15.27;;
42000;SDS011;27689;48.390;10.856;2022-11-15T08:13:49;19.50;;;13.47;;
42000;SDS011;27689;48.390;10.856;2022-11-15T08:16:33;19.23;;;13.45;;
42000;SDS011;27689;48.390;10.856;2022-11-15T08:23:14;18.88;;;13.10;;
42000;SDS011;27689;48.390;10.856;2022-11-15T08:26:24;18.45;;;12.77;;
42000;SDS011;27689;48.390;10.856;2022-11-15T08:32:12;14.98;;;10.80;;
42000;SDS011;27689;48.390;10.856;2022-11-15T08:34:56;17.40;;;11.67;;
42000;SDS011;27689;48.390;10.856;2022-11-15T08:37:40;17.73;;;11.03;;
42000;SDS011;27689;48.390;10.856;2022-11-15T08:40:24;13.87;;;10.50;;
42000;SDS011;27689;48.390;10.856;2022-11-15T08:43:08;27.17;;;16.17;;
42000;SDS011;27689;48.390;10.856;2022-11-15T08:45:55;17.95;;;12.57;;
42000;SDS011;27689;48.390;10.856;2022-11-15T08:48:39;14.02;;;10.50;;
42000;SDS011;27689;48.390;10.856;2022-11-15T08:51:24;12.98;;;9.65;;
42000;SDS011;27689;48.390;10.856;2022-11-15T08:54:08;16.92;;;12.70;;
42000;SDS011;27689;48.390;10.856;2022-11-15T08:56:52;12.38;;;8.77;;
42000;SDS011;27689;48.390;10.856;2022-11-15T08:59:36;11.70;;;8.17;;
42000;SDS011;27689;48.390;10.856;2022-11-15T09:05:05;13.48;;;8.90;;
42000;SDS011;27689;48.390;10.856;2022-11-15T09:07:53;6.78;;;5.93;;
42000;SDS011;27689;48.390;10.856;2022-11-15T09:10:38;7.88;;;6.22;;
42000;SDS011;27689;48.390;10.856;2022-11-15T09:13:22;8.82;;;6.60;;
42000;SDS011;27689;48.390;10.856;2022-11-15T09:16:06;8.15;;;6.47;;
42000;SDS011;27689;48.390;10.856;2022-11-15T09:18:50;7.78;;;5.88;;
42000;SDS011;27689;48.390;10.856;2022-11-15T09:21:34;10.80;;;6.28;;
42000;SDS011;27689;48.390;10.856;2022-11-15T09:24:18;9.80;;;6.37;;
42000;SDS011;27689;48.390;10.856;2022-11-15T09:27:02;8.93;;;6.90;;
42000;SDS011;27689;48.390;10.856;2022-11-15T09:29:46;8.23;;;6.32;;
42000;SDS011;27689;48.390;10.856;2022-11-15T09:32:30;9.02;;;6.38;;
42000;SDS011;27689;48.390;10.856;2022-11-15T09:35:14;11.63;;;6.10;;
42000;SDS011;27689;48.390;10.856;2022-11-15T09:37:58;8.02;;;6.32;;
42000;SDS011;27689;48.390;10.856;2022-11-15T09:40:42;6.65;;;5.43;;
42000;SDS011;27689;48.390;10.856;2022-11-15T09:43:35;6.93;;;5.70;;
42000;SDS011;27689;48.390;10.856;2022-11-15T09:49:38;11.15;;;5.55;;
42000;SDS011;27689;48.390;10.856;2022-11-15T09:52:22;7.80;;;5.47;;
42000;SDS011;27689;48.390;10.856;2022-11-15T09:55:08;7.45;;;5.95;;
42000;SDS011;27689;48.390;10.856;2022-11-15T09:58:04;6.78;;;5.72;;
42000;SDS011;27689;48.390;10.856;2022-11-15T10:00:59;11.13;;;8.02;;
42000;SDS011;27689;48.390;10.856;2022-11-15T10:03:50;9.35;;;6.38;;
42000;SDS011;27689;48.390;10.856;2022-11-15T10:06:34;10.70;;;6.15;;
42000;SDS011;27689;48.390;10.856;2022-11-15T10:09:26;9.05;;;6.10;;
42000;SDS011;27689;48.390;10.856;2022-11-15T10:12:18;22.67;;;12.93;;
42000;SDS011;27689;48.390;10.856;2022-11-15T10:15:12;7.67;;;4.30;;
42000;SDS011;27689;48.390;10.856;2022-11-15T10:20:49;4.97;;;3.67;;
42000;SDS011;27689;48.390;10.856;2022-11-15T10:23:40;5.47;;;4.03;;
42000;SDS011;27689;48.390;10.856;2022-11-15T10:26:24;6.45;;;3.80;;
42000;SDS011;27689;48.390;10.856;2022-11-15T10:29:08;5.37;;;3.83;;
42000;SDS011;27689;48.390;10.856;2022-11-15T10:31:52;8.45;;;4.00;;
42000;SDS011;27689;48.390;10.856;2022-11-15T10:34:36;7.32;;;4.72;;
42000;SDS011;27689;48.390;10.856;2022-11-15T10:37:30;6.70;;;5.00;;
42000;SDS011;27689;48.390;10.856;2022-11-15T10:40:16;5.53;;;4.38;;
42000;SDS011;27689;48.390;10.856;2022-11-15T10:45:53;6.43;;;4.65;;
42000;SDS011;27689;48.390;10.856;2022-11-15T10:52:18;8.50;;;4.90;;
42000;SDS011;27689;48.390;10.856;2022-11-15T10:58:05;7.43;;;4.82;;
42000;SDS011;27689;48.390;10.856;2022-11-15T11:01:11;7.30;;;4.63;;
42000;SDS011;27689;48.390;10.856;2022-11-15T11:04:00;4.70;;;3.88;;
42000;SDS011;27689;48.390;10.856;2022-11-15T11:09:37;6.30;;;4.43;;
42000;SDS011;27689;48.390;10.856;2022-11-15T11:12:26;7.15;;;4.28;;
42000;SDS011;27689;48.390;10.856;2022-11-15T11:15:13;7.03;;;4.20;;
42000;SDS011;27689;48.390;10.856;2022-11-15T11:20:55;7.32;;;4.32;;
42000;SDS011;27689;48.390;10.856;2022-11-15T11:33:01;7.03;;;5.32;;
42000;SDS011;27689;48.390;10.856;2022-11-15T11:38:40;6.00;;;4.57;;
42000;SDS011;27689;48.390;10.856;2022-11-15T11:41:46;6.15;;;4.60;;
42000;SDS011;27689;48.390;10.856;2022-11-15T11:47:39;6.93;;;4.65;;
42000;SDS011;27689;48.390;10.856;2022-11-15T11:50:26;5.35;;;4.50;;
42000;SDS011;27689;48.390;10.856;2022-11-15T11:53:17;7.57;;;5.82;;
42000;SDS011;27689;48.390;10.856;2022-11-15T11:56:17;6.57;;;5.07;;
42000;SDS011;27689;48.390;10.856;2022-11-15T11:59:19;6.93;;;4.88;;
42000;SDS011;27689;48.390;10.856;2022-11-15T12:02:14;5.72;;;4.22;;
42000;SDS011;27689;48.390;10.856;2022-11-15T12:17:16;4.70;;;3.60;;
42000;SDS011;27689;48.390;10.856;2022-11-15T12:20:24;5.25;;;4.20;;
42000;SDS011;27689;48.390;10.856;2022-11-15T12:23:13;6.72;;;4.43;;
42000;SDS011;27689;48.390;10.856;2022-11-15T12:26:08;7.70;;;4.70;;
42000;SDS011;27689;48.390;10.856;2022-11-15T12:29:09;7.43;;;4.38;;
42000;SDS011;27689;48.390;10.856;2022-11-15T12:35:25;7.28;;;5.07;;
42000;SDS011;27689;48.390;10.856;2022-11-15T12:38:10;7.05;;;5.40;;
42000;SDS011;27689;48.390;10.856;2022-11-15T12:41:13;8.48;;;5.35;;
42000;SDS011;27689;48.390;10.856;2022-11-15T12:43:58;9.32;;;5.38;;
42000;SDS011;27689;48.390;10.856;2022-11-15T12:52:14;5.63;;;5.03;;
42000;SDS011;27689;48.390;10.856;2022-11-15T12:54:59;6.35;;;5.53;;
42000;SDS011;27689;48.390;10.856;2022-11-15T12:57:45;8.00;;;5.75;;
42000;SDS011;27689;48.390;10.856;2022-11-15T13:03:17;7.25;;;5.40;;
42000;SDS011;27689;48.390;10.856;2022-11-15T13:06:04;12.57;;;5.40;;
42000;SDS011;27689;48.390;10.856;2022-11-15T13:08:50;6.10;;;5.50;;
42000;SDS011;27689;48.390;10.856;2022-11-15T13:11:44;8.05;;;5.10;;
42000;SDS011;27689;48.390;10.856;2022-11-15T13:17:24;6.13;;;4.90;;
42000;SDS011;27689;48.390;10.856;2022-11-15T13:26:10;7.15;;;5.13;;
42000;SDS011;27689;48.390;10.856;2022-11-15T13:28:54;7.40;;;5.70;;
42000;SDS011;27689;48.390;10.856;2022-11-15T13:34:31;9.20;;;4.88;;
42000;SDS011;27689;48.390;10.856;2022-11-15T13:40:15;5.47;;;4.43;;
42000;SDS011;27689;48.390;10.856;2022-11-15T13:43:17;5.38;;;4.20;;
42000;SDS011;27689;48.390;10.856;2022-11-15T13:46:13;6.40;;;4.53;;
42000;SDS011;27689;48.390;10.856;2022-11-15T13:49:09;4.50;;;3.75;;
42000;SDS011;27689;48.390;10.856;2022-11-15T13:51:56;6.80;;;4.53;;
42000;SDS011;27689;48.390;10.856;2022-11-15T13:54:42;6.30;;;4.88;;
42000;SDS011;27689;48.390;10.856;2022-11-15T13:57:53;7.18;;;4.78;;
42000;SDS011;27689;48.390;10.856;2022-11-15T14:00:41;6.20;;;4.90;;
42000;SDS011;27689;48.390;10.856;2022-11-15T14:03:40;7.18;;;4.40;;
42000;SDS011;27689;48.390;10.856;2022-11-15T14:06:31;5.30;;;4.57;;
42000;SDS011;27689;48.390;10.856;2022-11-15T14:12:32;7.68;;;5.05;;
42000;SDS011;27689;48.390;10.856;2022-11-15T14:15:24;6.55;;;5.18;;
42000;SDS011;27689;48.390;10.856;2022-11-15T14:18:38;5.47;;;4.28;;
42000;SDS011;27689;48.390;10.856;2022-11-15T14:21:28;6.10;;;4.43;;
42000;SDS011;27689;48.390;10.856;2022-11-15T14:24:17;7.85;;;4.97;;
42000;SDS011;27689;48.390;10.856;2022-11-15T14:27:22;5.60;;;4.45;;
42000;SDS011;27689;48.390;10.856;2022-11-15T14:30:12;6.55;;;4.20;;
42000;SDS011;27689;48.390;10.856;2022-11-15T14:32:59;6.13;;;3.95;;
42000;SDS011;27689;48.390;10.856;2022-11-15T14:35:43;6.78;;;3.55;;
42000;SDS011;27689;48.390;10.856;2022-11-15T14:38:27;5.28;;;3.30;;
42000;SDS011;27689;48.390;10.856;2022-11-15T14:41:22;6.05;;;3.88;;
42000;SDS011;27689;48.390;10.856;2022-11-15T14:44:09;5.32;;;3.80;;
42000;SDS011;27689;48.390;10.856;2022-11-15T14:46:54;4.97;;;3.63;;
42000;SDS011;27689;48.390;10.856;2022-11-15T14:49:39;4.47;;;3.30;;
42000;SDS011;27689;48.390;10.856;2022-11-15T14:52:23;3.92;;;3.33;;
42000;SDS011;27689;48.390;10.856;2022-11-15T14:55:16;3.97;;;3.50;;
42000;SDS011;27689;48.390;10.856;2022-11-15T14:58:04;4.45;;;3.47;;
42000;SDS011;27689;48.390;10.856;2022-11-15T15:00:51;5.32;;;4.20;;
42000;SDS011;27689;48.390;10.856;2022-11-15T15:03:35;4.63;;;3.67;;
42000;SDS011;27689;48.390;10.856;2022-11-15T15:06:19;5.68;;;4.45;;
42000;SDS011;27689;48.390;10.856;2022-11-15T15:09:03;5.95;;;5.30;;
42000;SDS011;27689;48.390;10.856;2022-11-15T15:11:48;4.50;;;4.00;;
42000;SDS011;27689;48.390;10.856;2022-11-15T15:14:32;4.95;;;4.22;;
42000;SDS011;27689;48.390;10.856;2022-11-15T15:17:16;5.15;;;4.63;;
42000;SDS011;27689;48.390;10.856;2022-11-15T15:22:45;6.25;;;4.43;;
42000;SDS011;27689;48.390;10.856;2022-11-15T15:25:31;7.43;;;4.57;;
42000;SDS011;27689;48.390;10.856;2022-11-15T15:28:17;12.70;;;6.72;;
42000;SDS011;27689;48.390;10.856;2022-11-15T15:31:01;15.68;;;8.45;;
42000;SDS011;27689;48.390;10.856;2022-11-15T15:33:45;9.45;;;6.18;;
42000;SDS011;27689;48.390;10.856;2022-11-15T15:36:29;12.43;;;8.32;;
42000;SDS011;27689;48.390;10.856;2022-11-15T15:39:13;12.57;;;9.00;;
42000;SDS011;27689;48.390;10.856;2022-11-15T15:41:57;11.27;;;6.88;;
42000;SDS011;27689;48.390;10.856;2022-11-15T15:44:41;15.20;;;7.27;;
42000;SDS011;27689;48.390;10.856;2022-11-15T15:47:25;11.00;;;6.03;;
42000;SDS011;27689;48.390;10.856;2022-11-15T15:50:14;14.05;;;6.88;;
42000;SDS011;27689;48.390;10.856;2022-11-15T15:53:08;8.55;;;6.03;;
42000;SDS011;27689;48.390;10.856;2022-11-15T15:55:54;10.88;;;7.53;;
42000;SDS011;27689;48.390;10.856;2022-11-15T15:58:38;9.35;;;7.00;;
42000;SDS011;27689;48.390;10.856;2022-11-15T16:01:22;12.68;;;7.25;;
42000;SDS011;27689;48.390;10.856;2022-11-15T16:04:06;11.32;;;7.20;;
42000;SDS011;27689;48.390;10.856;2022-11-15T16:06:50;8.73;;;6.50;;
42000;SDS011;27689;48.390;10.856;2022-11-15T16:09:35;10.27;;;6.40;;
42000;SDS011;27689;48.390;10.856;2022-11-15T16:12:38;11.48;;;6.30;;
42000;SDS011;27689;48.390;10.856;2022-11-15T16:15:23;8.63;;;5.83;;
42000;SDS011;27689;48.390;10.856;2022-11-15T16:18:12;10.25;;;6.03;;
42000;SDS011;27689;48.390;10.856;2022-11-15T16:20:59;12.43;;;6.13;;
42000;SDS011;27689;48.390;10.856;2022-11-15T16:26:28;10.02;;;6.95;;
42000;SDS011;27689;48.390;10.856;2022-11-15T16:29:17;7.63;;;6.10;;
42000;SDS011;27689;48.390;10.856;2022-11-15T16:32:01;11.65;;;7.47;;
42000;SDS011;27689;48.390;10.856;2022-11-15T16:34:45;12.68;;;7.72;;
42000;SDS011;27689;48.390;10.856;2022-11-15T16:37:29;13.13;;;7.00;;
42000;SDS011;27689;48.390;10.856;2022-11-15T16:40:33;10.95;;;6.57;;
42000;SDS011;27689;48.390;10.856;2022-11-15T16:43:18;8.35;;;6.90;;
42000;SDS011;27689;48.390;10.856;2022-11-15T16:46:11;10.23;;;7.05;;
42000;SDS011;27689;48.390;10.856;2022-11-15T16:48:57;10.02;;;6.43;;
42000;SDS011;27689;48.390;10.856;2022-11-15T16:51:41;11.43;;;7.10;;
42000;SDS011;27689;48.390;10.856;2022-11-15T16:54:28;11.23;;;7.28;;
42000;SDS011;27689;48.390;10.856;2022-11-15T16:57:13;8.73;;;6.80;;
42000;SDS011;27689;48.390;10.856;2022-11-15T16:59:57;9.93;;;6.67;;
42000;SDS011;27689;48.390;10.856;2022-11-15T17:02:44;10.68;;;6.25;;
42000;SDS011;27689;48.390;10.856;2022-11-15T17:05:29;12.73;;;7.28;;
42000;SDS011;27689;48.390;10.856;2022-11-15T17:08:13;9.10;;;6.50;;
42000;SDS011;27689;48.390;10.856;2022-11-15T17:10:57;7.37;;;5.80;;
42000;SDS011;27689;48.390;10.856;2022-11-15T17:13:41;11.95;;;7.50;;
42000;SDS011;27689;48.390;10.856;2022-11-15T17:16:26;11.57;;;8.27;;
42000;SDS011;27689;48.390;10.856;2022-11-15T17:19:13;9.98;;;7.75;;
42000;SDS011;27689;48.390;10.856;2022-11-15T17:21:58;12.52;;;7.53;;
42000;SDS011;27689;48.390;10.856;2022-11-15T17:24:42;10.98;;;7.45;;
42000;SDS011;27689;48.390;10.856;2022-11-15T17:27:26;11.73;;;7.88;;
42000;SDS011;27689;48.390;10.856;2022-11-15T17:30:13;10.90;;;7.70;;
42000;SDS011;27689;48.390;10.856;2022-11-15T17:32:59;9.90;;;8.20;;
42000;SDS011;27689;48.390;10.856;2022-11-15T17:35:43;14.40;;;9.15;;
42000;SDS011;27689;48.390;10.856;2022-11-15T17:38:27;14.10;;;9.60;;
42000;SDS011;27689;48.390;10.856;2022-11-15T17:41:13;16.15;;;10.25;;
42000;SDS011;27689;48.390;10.856;2022-11-15T17:43:58;19.48;;;10.30;;
42000;SDS011;27689;48.390;10.856;2022-11-15T17:46:43;17.25;;;11.68;;
42000;SDS011;27689;48.390;10.856;2022-11-15T17:49:28;15.02;;;10.55;;
42000;SDS011;27689;48.390;10.856;2022-11-15T17:52:12;17.35;;;11.10;;
42000;SDS011;27689;48.390;10.856;2022-11-15T17:54:56;19.92;;;11.90;;
42000;SDS011;27689;48.390;10.856;2022-11-15T17:57:42;17.48;;;11.05;;
42000;SDS011;27689;48.390;10.856;2022-11-15T18:00:27;20.55;;;13.27;;
42000;SDS011;27689;48.390;10.856;2022-11-15T18:03:12;18.92;;;12.63;;
42000;SDS011;27689;48.390;10.856;2022-11-15T18:05:56;17.15;;;11.85;;
42000;SDS011;27689;48.390;10.856;2022-11-15T18:08:40;26.17;;;14.15;;
42000;SDS011;27689;48.390;10.856;2022-11-15T18:11:27;21.35;;;13.65;;
42000;SDS011;27689;48.390;10.856;2022-11-15T18:14:13;16.77;;;12.23;;
42000;SDS011;27689;48.390;10.856;2022-11-15T18:19:42;21.48;;;13.10;;
42000;SDS011;27689;48.390;10.856;2022-11-15T18:22:26;19.35;;;13.40;;
42000;SDS011;27689;48.390;10.856;2022-11-15T18:25:11;19.52;;;13.55;;
42000;SDS011;27689;48.390;10.856;2022-11-15T18:27:58;18.73;;;13.02;;
42000;SDS011;27689;48.390;10.856;2022-11-15T18:30:42;18.67;;;13.77;;
42000;SDS011;27689;48.390;10.856;2022-11-15T18:33:27;19.80;;;13.98;;
42000;SDS011;27689;48.390;10.856;2022-11-15T18:38:57;21.58;;;13.55;;